Terminal Aerodrome Forecast
Issued by NWS Denver/Boulder, CO

Home | Current Version | Previous Version | Text Only | Print | Product List | Glossary On
Versions: 1 2 3 4 5 6 7 8 9 10 11 12 13 14 15 16 17 18 19 20 21 22 23 24 25 26 27 28 29 30 31 32 33 34 35 36 37 38 39 40 41 42 43 44 45 46 47 48 49 50
000
FTUS45 KBOU 260310 AAD
TAFDEN
TAF AMD
KDEN 260310Z 2603/2706 03015G22KT P6SM VCSH BKN012 BKN050
     FM260500 02010KT P6SM SCT050 SCT070 BKN120
     FM261100 21007KT P6SM FEW120 SCT220
     FM261600 16007KT P6SM FEW120 SCT220
     FM262000 32012KT P6SM SCT090 BKN140
     FM270300 14008KT P6SM SCT060 BKN080=

USA.gov is the U.S. government's official web portal to all federal, state and local government web resources and services.